Time;durP1;ratioP1;P1;durP2;ratioP2;P2;SDS_P1;SDS_P2;PMS_P1;PMS_P2;Temp;Humidity;BMP_temperature;BMP_pressure;BME280_temperature;BME280_humidity;BME280_pressure;Samples;Min_cycle;Max_cycle;Signal;HPM_P1;HPM_P2
2021/07/04 00:01:15;;;;;;;16.23;14.67;;;19.10;1.00;;;;;;5070002;28;20187;-62
2021/07/04 00:03:40;;;;;;;14.57;13.20;;;19.00;1.00;;;;;;5056463;28;20480;-61
2021/07/04 00:06:06;;;;;;;15.80;14.30;;;19.00;1.00;;;;;;5055546;28;20534;-62
2021/07/04 00:08:32;;;;;;;16.87;14.20;;;19.00;1.00;;;;;;5068854;28;20187;-62
2021/07/04 00:11:06;;;;;;;15.67;14.17;;;20.20;1.00;;;;;;5070889;28;20203;-61
2021/07/04 00:13:32;;;;;;;16.23;14.90;;;18.80;1.00;;;;;;5074631;28;20274;-62
2021/07/04 00:16:01;;;;;;;14.47;13.13;;;18.80;1.00;;;;;;5066035;28;20487;-62
2021/07/04 00:18:28;;;;;;;13.50;12.20;;;18.80;1.00;;;;;;5071785;28;20426;-63
2021/07/04 00:20:56;;;;;;;14.53;13.00;;;18.70;1.00;;;;;;5075023;28;20401;-62
2021/07/04 00:23:23;;;;;;;14.50;13.10;;;18.70;1.00;;;;;;5063098;28;20896;-61
2021/07/04 00:25:49;;;;;;;14.93;13.63;;;18.70;1.00;;;;;;5073588;28;20437;-60
2021/07/04 00:28:14;;;;;;;12.57;11.53;;;18.70;1.00;;;;;;5074583;28;20907;-61
2021/07/04 00:30:41;;;;;;;13.93;12.60;;;18.70;1.00;;;;;;5074261;28;20220;-61
2021/07/04 00:33:07;;;;;;;13.80;12.53;;;18.70;1.00;;;;;;5074393;28;20207;-63
2021/07/04 00:35:33;;;;;;;15.13;13.63;;;18.70;1.00;;;;;;5074474;28;20433;-61
2021/07/04 00:38:00;;;;;;;14.73;13.23;;;18.60;1.00;;;;;;5073858;28;20198;-61
2021/07/04 00:40:26;;;;;;;14.17;12.80;;;18.60;1.00;;;;;;5073227;28;20792;-62
2021/07/04 00:42:52;;;;;;;14.47;13.07;;;18.60;1.00;;;;;;5074171;28;20449;-61
2021/07/04 00:45:21;;;;;;;13.33;12.23;;;18.70;1.00;;;;;;5074316;28;20460;-63
2021/07/04 00:47:48;;;;;;;15.67;12.53;;;18.50;1.00;;;;;;5073414;28;20438;-61
2021/07/04 00:50:16;;;;;;;13.90;12.47;;;18.50;1.00;;;;;;5057444;28;20450;-62
2021/07/04 00:52:43;;;;;;;13.63;12.53;;;18.50;1.00;;;;;;5064728;28;20539;-61
2021/07/04 00:55:11;;;;;;;12.87;11.77;;;18.50;1.00;;;;;;5073994;28;20480;-61
2021/07/04 00:57:37;;;;;;;13.80;12.70;;;18.40;1.00;;;;;;5074004;28;20430;-62
2021/07/04 01:00:08;;;;;;;12.90;11.80;;;18.40;1.00;;;;;;5074300;28;20901;-64
2021/07/04 01:02:33;;;;;;;12.97;11.90;;;18.30;1.00;;;;;;5067883;28;20453;-61
2021/07/04 01:04:59;;;;;;;13.30;11.53;;;18.40;1.00;;;;;;5073994;28;20914;-61
2021/07/04 01:07:25;;;;;;;12.07;10.97;;;18.30;1.00;;;;;;5073928;28;20179;-63
2021/07/04 01:09:50;;;;;;;12.27;10.90;;;18.30;1.00;;;;;;5073894;28;20195;-61
2021/07/04 01:12:16;;;;;;;12.30;11.23;;;18.20;1.00;;;;;;5073815;28;20209;-61
2021/07/04 01:14:42;;;;;;;13.53;11.00;;;18.60;1.00;;;;;;5066854;28;20191;-61
2021/07/04 01:17:07;;;;;;;15.20;11.80;;;18.30;1.00;;;;;;5073794;28;20180;-61
2021/07/04 01:19:33;;;;;;;12.97;11.77;;;18.30;1.00;;;;;;5073580;28;20310;-60
2021/07/04 01:22:01;;;;;;;12.80;11.70;;;18.20;1.00;;;;;;5065848;28;20230;-60
2021/07/04 01:24:27;;;;;;;13.17;11.87;;;18.20;1.00;;;;;;5073407;28;20458;-61
2021/07/04 01:26:53;;;;;;;13.07;11.70;;;18.20;1.00;;;;;;5060922;28;20627;-62
2021/07/04 01:29:20;;;;;;;12.40;11.30;;;18.20;1.00;;;;;;5067296;28;20476;-63
2021/07/04 01:31:45;;;;;;;12.90;11.77;;;18.10;1.00;;;;;;5073166;28;20953;-61
2021/07/04 01:34:11;;;;;;;13.07;11.77;;;18.00;1.00;;;;;;5073496;28;20442;-62
2021/07/04 01:36:38;;;;;;;12.13;11.03;;;18.00;1.00;;;;;;5065021;28;20316;-61
2021/07/04 01:39:05;;;;;;;12.60;11.30;;;18.00;1.00;;;;;;5066708;28;20191;-61
2021/07/04 01:41:31;;;;;;;12.63;11.53;;;18.00;1.00;;;;;;5073112;28;20957;-62
2021/07/04 01:43:57;;;;;;;11.87;10.77;;;18.00;1.00;;;;;;5062371;28;20450;-61
2021/07/04 01:46:22;;;;;;;12.60;11.37;;;17.90;1.00;;;;;;5053439;28;20456;-62
2021/07/04 01:48:48;;;;;;;12.27;11.17;;;18.00;1.00;;;;;;5053243;28;20180;-61
2021/07/04 01:51:14;;;;;;;12.23;11.13;;;18.00;1.00;;;;;;5059219;28;20204;-63
2021/07/04 01:53:39;;;;;;;11.20;10.30;;;18.00;1.00;;;;;;5065624;28;20252;-60
2021/07/04 01:56:07;;;;;;;12.17;11.07;;;18.00;1.00;;;;;;5072875;28;20653;-60
2021/07/04 01:58:34;;;;;;;12.80;11.67;;;17.90;1.00;;;;;;5071720;28;20231;-61
2021/07/04 02:00:59;;;;;;;19.20;11.20;;;17.90;1.00;;;;;;5073012;28;20437;-61
2021/07/04 02:03:25;;;;;;;12.70;11.50;;;17.90;1.00;;;;;;5072663;28;20442;-63
2021/07/04 02:05:51;;;;;;;12.83;11.57;;;17.80;1.00;;;;;;5072826;28;20187;-62
2021/07/04 02:08:16;;;;;;;12.47;11.37;;;17.80;1.00;;;;;;5072469;28;20191;-60
2021/07/04 02:10:42;;;;;;;12.43;11.30;;;17.80;1.00;;;;;;5072428;28;20195;-62
2021/07/04 02:13:09;;;;;;;13.27;12.07;;;17.80;1.00;;;;;;5072160;28;20234;-63
2021/07/04 02:15:38;;;;;;;14.10;12.70;;;17.80;1.00;;;;;;5056741;28;20494;-62
2021/07/04 02:18:07;;;;;;;12.50;11.30;;;17.70;1.00;;;;;;5066789;28;20477;-61
2021/07/04 02:20:48;;;;;;;12.10;11.00;;;17.70;1.00;;;;;;5071037;28;20435;-61
2021/07/04 02:23:19;;;;;;;11.07;10.17;;;17.70;1.00;;;;;;5070666;28;20947;-62
2021/07/04 02:25:47;;;;;;;11.90;10.90;;;17.70;1.00;;;;;;5069730;28;20445;-62
2021/07/04 02:28:16;;;;;;;12.07;10.90;;;17.60;1.00;;;;;;5065685;28;20541;-61
2021/07/04 02:30:42;;;;;;;13.10;11.90;;;17.60;1.00;;;;;;5070559;28;20480;-62
2021/07/04 02:33:10;;;;;;;12.27;10.80;;;17.60;1.00;;;;;;5071873;28;20465;-60
2021/07/04 02:35:42;;;;;;;11.93;10.80;;;17.60;1.00;;;;;;5062809;28;20532;-60
2021/07/04 02:38:08;;;;;;;13.07;11.97;;;17.50;1.00;;;;;;5071119;28;20503;-61
2021/07/04 02:40:35;;;;;;;13.63;12.43;;;17.40;1.00;;;;;;5070515;28;20491;-61
2021/07/04 02:43:01;;;;;;;12.00;11.00;;;17.40;1.00;;;;;;5071164;28;20846;-62
2021/07/04 02:45:27;;;;;;;11.97;10.97;;;17.40;1.00;;;;;;5071617;28;20459;-61
2021/07/04 02:47:53;;;;;;;12.30;11.20;;;17.40;1.00;;;;;;5071964;28;20810;-61
2021/07/04 02:50:22;;;;;;;14.87;12.10;;;17.40;1.00;;;;;;5071539;28;20538;-62
2021/07/04 02:52:52;;;;;;;13.13;11.83;;;17.40;1.00;;;;;;5071516;28;20662;-62
2021/07/04 02:55:19;;;;;;;12.70;11.50;;;17.50;1.00;;;;;;5066930;28;20807;-60
2021/07/04 02:57:45;;;;;;;11.50;10.50;;;17.40;1.00;;;;;;5071672;28;20527;-61
2021/07/04 03:00:13;;;;;;;12.27;10.87;;;17.30;1.00;;;;;;5068058;28;20437;-61
2021/07/04 03:02:39;;;;;;;11.83;10.70;;;17.30;1.00;;;;;;5068759;28;20456;-60
2021/07/04 03:05:09;;;;;;;14.73;10.53;;;17.30;1.00;;;;;;5071760;28;20831;-61
2021/07/04 03:07:36;;;;;;;11.50;10.50;;;17.40;1.00;;;;;;5070260;28;20644;-61
2021/07/04 03:10:10;;;;;;;11.97;10.90;;;17.30;1.00;;;;;;5071875;28;20486;-60
2021/07/04 03:12:36;;;;;;;11.53;10.50;;;17.30;1.00;;;;;;5071334;28;21056;-61
2021/07/04 03:15:06;;;;;;;11.80;10.80;;;17.20;1.00;;;;;;5071718;28;20517;-61
2021/07/04 03:17:32;;;;;;;11.93;10.73;;;17.20;1.00;;;;;;5071648;28;20533;-61
2021/07/04 03:19:57;;;;;;;10.90;9.90;;;17.20;1.00;;;;;;5071889;28;20434;-62
2021/07/04 03:22:23;;;;;;;12.27;11.07;;;17.30;1.00;;;;;;5071586;28;20653;-61
2021/07/04 03:24:49;;;;;;;11.60;10.50;;;17.40;1.00;;;;;;5063907;28;20187;-62
2021/07/04 03:27:15;;;;;;;10.83;9.93;;;17.30;1.00;;;;;;5051584;28;20542;-62
2021/07/04 03:29:41;;;;;;;11.30;10.30;;;17.40;1.00;;;;;;5065330;28;20481;-61
2021/07/04 03:32:06;;;;;;;11.33;10.23;;;17.40;1.00;;;;;;5071517;28;20469;-60
2021/07/04 03:34:33;;;;;;;11.73;10.77;;;17.40;1.00;;;;;;5071016;28;20188;-61
2021/07/04 03:36:59;;;;;;;10.67;9.70;;;17.50;1.00;;;;;;5060362;28;20184;-62
2021/07/04 03:39:24;;;;;;;12.17;10.90;;;17.50;1.00;;;;;;5075362;28;20444;-62
2021/07/04 03:41:50;;;;;;;11.60;10.30;;;17.50;1.00;;;;;;5073804;28;20198;-63
2021/07/04 03:44:16;;;;;;;10.93;9.93;;;17.40;1.00;;;;;;5060345;28;20226;-62
2021/07/04 03:46:41;;;;;;;11.60;10.50;;;17.60;1.00;;;;;;5073421;28;20206;-62
2021/07/04 03:49:07;;;;;;;11.43;10.43;;;17.60;1.00;;;;;;5068309;28;20262;-62
2021/07/04 03:51:33;;;;;;;11.33;10.17;;;17.60;1.00;;;;;;5067509;28;20215;-62
2021/07/04 03:53:58;;;;;;;10.00;9.00;;;17.60;1.00;;;;;;5074487;28;20175;-61
2021/07/04 03:56:24;;;;;;;11.27;10.27;;;17.70;1.00;;;;;;5072390;28;20218;-62
2021/07/04 03:58:49;;;;;;;11.33;10.33;;;17.80;1.00;;;;;;5073691;28;20511;-61
2021/07/04 04:01:19;;;;;;;10.30;9.40;;;17.80;1.00;;;;;;5074375;28;20176;-61
2021/07/04 04:03:46;;;;;;;9.93;9.03;;;17.80;1.00;;;;;;5071828;28;20270;-62
2021/07/04 04:06:12;;;;;;;11.73;10.83;;;17.80;1.00;;;;;;5066666;28;20438;-61
2021/07/04 04:08:38;;;;;;;11.33;10.20;;;17.90;1.00;;;;;;5073668;28;20452;-61
2021/07/04 04:11:04;;;;;;;11.33;10.33;;;17.90;1.00;;;;;;5069911;28;20191;-62
2021/07/04 04:13:30;;;;;;;10.07;9.13;;;17.90;1.00;;;;;;5073217;28;20182;-62
2021/07/04 04:15:55;;;;;;;10.97;9.97;;;17.80;1.00;;;;;;5073945;28;20897;-60
2021/07/04 04:18:21;;;;;;;10.90;9.90;;;17.80;1.00;;;;;;5066808;28;20206;-61
2021/07/04 04:20:46;;;;;;;11.00;10.00;;;17.80;1.00;;;;;;5070924;28;20187;-62
2021/07/04 04:23:12;;;;;;;11.70;9.77;;;17.80;1.00;;;;;;5072010;28;20518;-63
2021/07/04 04:25:37;;;;;;;10.87;9.87;;;17.90;1.00;;;;;;5073420;28;20656;-61
2021/07/04 04:28:05;;;;;;;10.90;9.97;;;18.00;1.00;;;;;;5065824;28;20241;-60
2021/07/04 04:30:34;;;;;;;11.57;10.37;;;18.10;1.00;;;;;;5073734;28;20275;-61
2021/07/04 04:33:00;;;;;;;11.80;9.77;;;18.20;1.00;;;;;;5065279;28;20480;-63
2021/07/04 04:35:25;;;;;;;10.47;9.53;;;18.30;1.00;;;;;;5074224;28;20446;-61
2021/07/04 04:37:51;;;;;;;10.53;9.57;;;18.30;1.00;;;;;;5073206;28;20198;-62
2021/07/04 04:40:17;;;;;;;10.43;9.27;;;18.50;1.00;;;;;;5073234;28;20187;-62
2021/07/04 04:42:42;;;;;;;10.23;9.23;;;18.50;1.00;;;;;;5065596;28;20202;-61
2021/07/04 04:45:08;;;;;;;11.10;10.10;;;18.50;1.00;;;;;;5072743;28;20233;-61
2021/07/04 04:47:34;;;;;;;9.47;8.67;;;18.60;1.00;;;;;;5073934;28;20211;-62
2021/07/04 04:50:00;;;;;;;11.10;9.87;;;18.60;1.00;;;;;;5068971;28;20481;-61
2021/07/04 04:52:25;;;;;;;10.73;9.73;;;17.20;1.00;;;;;;5071855;28;20207;-62
2021/07/04 04:54:51;;;;;;;10.23;9.30;;;18.70;1.00;;;;;;5070343;28;20187;-62
2021/07/04 04:57:16;;;;;;;11.13;10.13;;;18.70;1.00;;;;;;5071099;28;20179;-61
2021/07/04 04:59:42;;;;;;;10.20;9.23;;;18.70;1.00;;;;;;5073318;28;20182;-60
2021/07/04 05:02:08;;;;;;;10.20;9.30;;;18.70;1.00;;;;;;5072156;28;20180;-62
2021/07/04 05:04:33;;;;;;;9.23;8.43;;;18.60;1.00;;;;;;5072548;28;20190;-61
2021/07/04 05:06:59;;;;;;;9.43;8.73;;;18.80;1.00;;;;;;5070217;28;20191;-62
2021/07/04 05:09:25;;;;;;;9.80;8.83;;;18.80;1.00;;;;;;5072000;28;20548;-62
2021/07/04 05:11:52;;;;;;;9.87;8.70;;;18.80;1.00;;;;;;5067000;28;20558;-62
2021/07/04 05:14:18;;;;;;;11.03;10.10;;;18.90;1.00;;;;;;5048227;28;20435;-63
2021/07/04 05:16:44;;;;;;;10.20;9.40;;;18.90;1.00;;;;;;5072293;28;20441;-61
2021/07/04 05:19:11;;;;;;;11.37;10.27;;;18.90;1.00;;;;;;5072580;28;20472;-61
2021/07/04 05:21:37;;;;;;;9.60;8.80;;;19.00;1.00;;;;;;5069815;28;20250;-61
2021/07/04 05:24:04;;;;;;;10.27;9.37;;;19.00;1.00;;;;;;5070180;28;20483;-61
2021/07/04 05:26:30;;;;;;;10.70;9.70;;;18.90;1.00;;;;;;5067857;28;20994;-63
2021/07/04 05:28:56;;;;;;;10.57;9.50;;;19.00;1.00;;;;;;5068438;28;20450;-61
2021/07/04 05:31:22;;;;;;;9.40;8.60;;;19.00;1.00;;;;;;5068924;28;20502;-62
2021/07/04 05:33:48;;;;;;;10.03;9.10;;;19.20;1.00;;;;;;5066764;28;20709;-62
2021/07/04 05:36:14;;;;;;;10.60;9.70;;;19.20;1.00;;;;;;5072970;28;20958;-63
2021/07/04 05:38:42;;;;;;;10.17;9.37;;;19.40;1.00;;;;;;5072828;28;20456;-61
2021/07/04 05:41:09;;;;;;;10.03;9.13;;;19.40;1.00;;;;;;5065704;28;20183;-62
2021/07/04 05:43:34;;;;;;;10.43;9.47;;;19.40;1.00;;;;;;5067140;28;20449;-61
2021/07/04 05:46:00;;;;;;;9.67;8.80;;;19.40;1.00;;;;;;5073127;28;20450;-61
2021/07/04 05:48:28;;;;;;;11.00;9.97;;;19.50;1.00;;;;;;5070334;28;20187;-61
2021/07/04 05:50:54;;;;;;;10.87;9.80;;;19.60;1.00;;;;;;5070033;28;20887;-61
2021/07/04 05:53:19;;;;;;;10.50;9.17;;;19.60;1.00;;;;;;5067924;28;21111;-62
2021/07/04 05:55:45;;;;;;;10.03;9.03;;;19.80;1.00;;;;;;5067559;28;20446;-61
2021/07/04 05:58:11;;;;;;;10.13;9.20;;;19.80;1.00;;;;;;5067474;28;20186;-62
2021/07/04 06:00:37;;;;;;;9.70;8.90;;;19.90;1.00;;;;;;5070239;28;20207;-63
2021/07/04 06:03:03;;;;;;;9.53;8.70;;;20.00;1.00;;;;;;5069476;28;20480;-61
2021/07/04 06:05:29;;;;;;;8.70;8.00;;;20.10;1.00;;;;;;5070259;28;20476;-62
2021/07/04 06:07:54;;;;;;;10.40;9.37;;;20.10;1.00;;;;;;5068391;28;20247;-62
2021/07/04 06:10:20;;;;;;;9.70;8.80;;;20.30;1.00;;;;;;5066739;28;20215;-61
2021/07/04 06:12:45;;;;;;;9.17;8.37;;;20.50;1.00;;;;;;5069003;28;20213;-62
2021/07/04 06:15:11;;;;;;;8.30;7.60;;;20.70;1.00;;;;;;5070071;28;20210;-61
2021/07/04 06:17:38;;;;;;;9.00;8.20;;;20.80;1.00;;;;;;5067327;28;20307;-60
2021/07/04 06:20:05;;;;;;;10.00;9.10;;;20.80;1.00;;;;;;5067573;28;21012;-60
2021/07/04 06:22:31;;;;;;;8.00;7.40;;;20.70;1.00;;;;;;5071769;28;20452;-62
2021/07/04 06:24:56;;;;;;;8.80;8.00;;;20.80;1.00;;;;;;5067694;28;20437;-62
2021/07/04 06:27:22;;;;;;;8.63;7.93;;;21.00;1.00;;;;;;5071036;28;20187;-62
2021/07/04 06:29:47;;;;;;;9.20;8.40;;;21.20;1.00;;;;;;5064631;28;20224;-62
2021/07/04 06:32:13;;;;;;;8.87;8.17;;;21.30;1.00;;;;;;5062702;28;20211;-62
2021/07/04 06:34:38;;;;;;;8.40;7.70;;;21.50;1.00;;;;;;5067839;28;20187;-62
2021/07/04 06:37:04;;;;;;;9.10;8.20;;;21.70;1.00;;;;;;5065898;28;20545;-61
2021/07/04 06:39:30;;;;;;;9.00;8.10;;;21.90;1.00;;;;;;5068437;28;20183;-62
2021/07/04 06:41:55;;;;;;;8.70;8.00;;;22.00;1.00;;;;;;5071528;28;20179;-63
2021/07/04 06:44:21;;;;;;;8.60;7.80;;;22.10;1.00;;;;;;5070969;28;20667;-62
2021/07/04 06:46:46;;;;;;;7.80;7.30;;;22.30;1.00;;;;;;5070382;28;20183;-60
2021/07/04 06:49:12;;;;;;;7.80;7.10;;;22.40;1.00;;;;;;5070564;28;20258;-60
2021/07/04 06:51:37;;;;;;;8.10;7.30;;;22.50;1.00;;;;;;5070326;28;20251;-61
2021/07/04 06:54:04;;;;;;;8.20;7.60;;;22.60;1.00;;;;;;5070065;28;20178;-60
2021/07/04 06:56:29;;;;;;;11.63;7.10;;;22.70;1.00;;;;;;5070279;28;20183;-61
2021/07/04 06:58:55;;;;;;;7.60;7.00;;;22.90;1.00;;;;;;5070159;28;20498;-61
2021/07/04 07:01:20;;;;;;;6.77;6.27;;;23.00;1.00;;;;;;5070246;28;20230;-60
2021/07/04 07:03:46;;;;;;;7.30;6.70;;;23.10;1.00;;;;;;5070571;28;20179;-62
2021/07/04 07:06:11;;;;;;;7.20;6.70;;;23.20;1.00;;;;;;5070141;28;20649;-61
2021/07/04 07:08:37;;;;;;;7.63;6.67;;;23.30;1.00;;;;;;5069999;28;20236;-61
2021/07/04 07:11:03;;;;;;;7.67;6.93;;;23.40;1.00;;;;;;5068142;28;20510;-61
2021/07/04 07:13:28;;;;;;;7.43;6.80;;;23.60;1.00;;;;;;5070265;28;20199;-61
2021/07/04 07:15:54;;;;;;;7.57;6.97;;;23.70;1.00;;;;;;5070246;28;20176;-59
2021/07/04 07:18:19;;;;;;;7.50;6.90;;;23.90;1.00;;;;;;5071638;28;20209;-60
2021/07/04 07:20:45;;;;;;;6.93;6.43;;;24.00;1.00;;;;;;5071857;28;20256;-60
2021/07/04 07:23:10;;;;;;;8.37;7.50;;;24.10;1.00;;;;;;5071467;28;20313;-62
2021/07/04 07:25:36;;;;;;;6.63;6.13;;;24.20;1.00;;;;;;5071669;28;20597;-64
2021/07/04 07:28:03;;;;;;;7.30;6.60;;;24.30;1.00;;;;;;5071693;28;20270;-61
2021/07/04 07:30:28;;;;;;;7.20;6.60;;;24.30;1.00;;;;;;5071483;28;20306;-61
2021/07/04 07:32:54;;;;;;;8.50;6.73;;;24.50;1.00;;;;;;5071674;28;20577;-61
2021/07/04 07:35:20;;;;;;;8.83;6.83;;;24.70;1.00;;;;;;5071820;28;20184;-62
2021/07/04 07:37:48;;;;;;;7.67;7.07;;;25.00;1.00;;;;;;5071522;28;20189;-63
2021/07/04 07:40:14;;;;;;;7.90;7.20;;;25.10;1.00;;;;;;5069132;28;20506;-65
2021/07/04 07:42:39;;;;;;;7.73;7.10;;;25.10;1.00;;;;;;5068933;28;20839;-65
2021/07/04 07:45:07;;;;;;;6.50;5.83;;;25.10;1.00;;;;;;5068897;28;20541;-66
2021/07/04 07:47:34;;;;;;;6.90;6.20;;;25.00;1.00;;;;;;5069205;28;20190;-66
2021/07/04 07:50:01;;;;;;;7.83;7.10;;;25.10;1.00;;;;;;5067714;28;20446;-65
2021/07/04 07:52:28;;;;;;;6.83;6.33;;;24.90;1.00;;;;;;5069152;28;20471;-61
2021/07/04 07:54:53;;;;;;;6.90;6.27;;;24.80;1.00;;;;;;5067927;28;20976;-59
2021/07/04 07:57:19;;;;;;;7.20;6.50;;;25.00;1.00;;;;;;5068951;28;20554;-60
2021/07/04 07:59:45;;;;;;;7.27;6.57;;;25.30;1.00;;;;;;5068900;28;20180;-61
2021/07/04 08:02:10;;;;;;;7.03;6.33;;;25.40;1.00;;;;;;5068909;28;20256;-61
2021/07/04 08:04:37;;;;;;;6.33;5.83;;;25.60;1.00;;;;;;5068770;28;20195;-60
2021/07/04 08:07:03;;;;;;;6.50;6.00;;;25.80;1.00;;;;;;5069337;28;20213;-61
2021/07/04 08:09:29;;;;;;;7.07;6.57;;;25.90;1.00;;;;;;5068275;28;20520;-61
2021/07/04 08:11:55;;;;;;;6.10;5.60;;;26.10;1.00;;;;;;5068540;28;20871;-61
2021/07/04 08:14:20;;;;;;;6.00;5.57;;;26.20;1.00;;;;;;5069000;28;20662;-60
2021/07/04 08:16:46;;;;;;;6.33;4.87;;;26.20;1.00;;;;;;5068433;28;20534;-60
2021/07/04 08:19:13;;;;;;;5.97;5.57;;;26.20;1.00;;;;;;5068827;28;20188;-59
2021/07/04 08:21:39;;;;;;;5.87;5.40;;;26.40;1.00;;;;;;5068371;28;20637;-63
2021/07/04 08:24:04;;;;;;;5.93;5.27;;;26.70;1.00;;;;;;5071654;28;20468;-61
2021/07/04 08:26:30;;;;;;;4.90;4.60;;;26.80;1.00;;;;;;5071901;28;20449;-61
2021/07/04 08:28:56;;;;;;;5.73;5.23;;;27.00;1.00;;;;;;5072374;28;20199;-61
2021/07/04 08:31:25;;;;;;;5.07;4.67;;;27.10;1.00;;;;;;5072008;28;20195;-60
2021/07/04 08:33:51;;;;;;;5.03;4.63;;;27.10;1.00;;;;;;5072259;28;20183;-59
2021/07/04 08:36:17;;;;;;;5.10;4.70;;;27.00;1.00;;;;;;5072116;28;20445;-60
2021/07/04 08:38:43;;;;;;;5.77;5.37;;;27.20;1.00;;;;;;5071893;28;20502;-61
2021/07/04 08:41:08;;;;;;;4.70;4.27;;;27.40;1.00;;;;;;5072099;28;20441;-59
2021/07/04 08:43:36;;;;;;;5.40;4.37;;;27.70;1.00;;;;;;5069038;28;20211;-59
2021/07/04 08:46:04;;;;;;;5.03;4.63;;;27.70;1.00;;;;;;5071563;28;20211;-60
2021/07/04 08:48:32;;;;;;;5.07;4.43;;;27.60;1.00;;;;;;5070147;28;20446;-59
2021/07/04 08:50:58;;;;;;;4.53;4.23;;;27.80;1.00;;;;;;5072207;28;20453;-58
2021/07/04 08:53:23;;;;;;;4.87;4.47;;;27.50;1.00;;;;;;5071354;28;20465;-58
2021/07/04 08:55:49;;;;;;;4.90;4.50;;;27.30;1.00;;;;;;5072890;28;20549;-60
2021/07/04 08:58:21;;;;;;;5.07;4.70;;;27.30;1.00;;;;;;5071540;28;20192;-59
2021/07/04 09:01:07;;;;;;;5.30;4.90;;;27.40;1.00;;;;;;5071355;28;20183;-59
2021/07/04 09:03:33;;;;;;;5.00;4.60;;;27.50;1.00;;;;;;5070875;28;20443;-57
2021/07/04 09:05:58;;;;;;;5.60;5.20;;;27.60;1.00;;;;;;5071719;28;20476;-59
2021/07/04 09:08:24;;;;;;;5.80;5.20;;;27.50;1.00;;;;;;5071670;28;20179;-59
2021/07/04 09:11:13;;;;;;;4.03;3.73;;;27.50;1.00;;;;;;5071230;28;20191;-59
2021/07/04 09:13:40;;;;;;;5.63;5.10;;;27.70;1.00;;;;;;5071169;28;20190;-58
2021/07/04 09:16:11;;;;;;;5.00;4.60;;;27.90;1.00;;;;;;5071245;28;20433;-60
2021/07/04 09:18:37;;;;;;;8.47;4.70;;;28.00;1.00;;;;;;5069408;28;20444;-60
2021/07/04 09:21:20;;;;;;;5.40;4.90;;;28.20;1.00;;;;;;5071546;28;20429;-58
2021/07/04 09:23:46;;;;;;;4.67;4.30;;;28.20;1.00;;;;;;5070750;28;20416;-65
2021/07/04 09:26:38;;;;;;;4.63;4.30;;;28.40;1.00;;;;;;5071325;28;20478;-55
2021/07/04 09:29:05;;;;;;;5.23;3.97;;;28.30;1.00;;;;;;5068441;28;20682;-55
2021/07/04 09:31:30;;;;;;;4.47;4.17;;;28.40;1.00;;;;;;5071411;28;21050;-53
2021/07/04 09:34:04;;;;;;;4.57;4.27;;;28.60;1.00;;;;;;5068559;28;20437;-55
2021/07/04 09:36:30;;;;;;;4.83;4.43;;;28.70;1.00;;;;;;5069850;28;20231;-55
2021/07/04 09:38:55;;;;;;;4.27;3.97;;;28.60;1.00;;;;;;5070692;28;20447;-55
2021/07/04 09:41:21;;;;;;;4.60;4.30;;;28.40;1.00;;;;;;5070074;28;20448;-54
2021/07/04 09:43:47;;;;;;;3.97;3.57;;;28.50;1.00;;;;;;5070493;28;20217;-54
2021/07/04 09:46:14;;;;;;;4.20;3.90;;;28.80;1.00;;;;;;5071239;28;20621;-53
2021/07/04 09:48:43;;;;;;;4.30;4.00;;;28.70;1.00;;;;;;5067557;28;20218;-54
2021/07/04 09:51:24;;;;;;;4.37;4.07;;;28.90;1.00;;;;;;5069501;28;20444;-53
2021/07/04 09:53:52;;;;;;;4.50;4.10;;;29.10;1.00;;;;;;5070274;28;20528;-56
2021/07/04 09:56:26;;;;;;;4.40;4.00;;;29.10;1.00;;;;;;5070892;28;20433;-53
2021/07/04 09:59:00;;;;;;;4.30;3.90;;;29.00;1.00;;;;;;5069834;28;20433;-54
2021/07/04 10:01:46;;;;;;;3.90;3.60;;;29.10;1.00;;;;;;5070162;28;20434;-53
2021/07/04 10:04:47;;;;;;;4.83;4.40;;;29.00;1.00;;;;;;5068780;28;20446;-54
2021/07/04 10:07:13;;;;;;;4.07;3.67;;;28.70;1.00;;;;;;5047113;28;20430;-54
2021/07/04 10:09:40;;;;;;;4.83;4.43;;;28.50;1.00;;;;;;5061260;28;20439;-54
2021/07/04 10:12:06;;;;;;;4.27;3.87;;;28.60;1.00;;;;;;5070832;28;20493;-54
2021/07/04 10:14:32;;;;;;;4.03;3.73;;;28.60;1.00;;;;;;5070662;28;20436;-54
2021/07/04 10:17:00;;;;;;;4.30;4.00;;;28.60;1.00;;;;;;5070053;28;20449;-53
2021/07/04 10:19:29;;;;;;;5.03;4.63;;;28.60;1.00;;;;;;5069424;28;20195;-56
2021/07/04 10:22:00;;;;;;;5.27;4.80;;;28.40;1.00;;;;;;5069592;28;20444;-56
2021/07/04 10:24:26;;;;;;;4.83;4.50;;;28.10;1.00;;;;;;5068362;28;20456;-54
2021/07/04 10:26:52;;;;;;;4.60;4.20;;;27.80;1.00;;;;;;5069859;28;20449;-55
2021/07/04 10:29:21;;;;;;;4.80;4.40;;;27.80;1.00;;;;;;5069801;28;20469;-53
2021/07/04 10:31:47;;;;;;;4.73;4.33;;;28.00;1.00;;;;;;5070494;28;20530;-53
2021/07/04 10:34:15;;;;;;;4.07;3.77;;;28.40;1.00;;;;;;5069735;28;20445;-53
2021/07/04 10:37:00;;;;;;;4.50;4.20;;;28.50;1.00;;;;;;5069473;28;20451;-54
2021/07/04 10:39:30;;;;;;;4.50;4.20;;;28.70;1.00;;;;;;5069316;28;20445;-53
2021/07/04 10:42:00;;;;;;;4.73;4.33;;;29.10;1.00;;;;;;5069548;28;20424;-54
2021/07/04 10:44:45;;;;;;;4.20;3.90;;;29.30;1.00;;;;;;5068991;28;20438;-54
2021/07/04 10:47:17;;;;;;;5.10;4.60;;;29.40;1.00;;;;;;5069512;28;20445;-56
2021/07/04 10:49:48;;;;;;;4.90;4.50;;;29.60;1.00;;;;;;5069599;28;20969;-55
2021/07/04 10:52:22;;;;;;;4.40;4.10;;;29.50;1.00;;;;;;5068958;28;20461;-55
2021/07/04 10:54:51;;;;;;;4.57;4.17;;;27.70;1.00;;;;;;5068382;28;21028;-54
2021/07/04 10:57:32;;;;;;;5.30;4.80;;;29.40;1.00;;;;;;5066542;28;20441;-54
2021/07/04 11:00:01;;;;;;;4.23;3.93;;;29.40;1.00;;;;;;5069322;28;20441;-55
2021/07/04 11:02:46;;;;;;;4.70;4.30;;;29.60;1.00;;;;;;5069699;28;20437;-54
2021/07/04 11:05:39;;;;;;;4.87;4.40;;;29.80;1.00;;;;;;5069329;28;20453;-55
2021/07/04 11:08:11;;;;;;;4.73;4.43;;;29.80;1.00;;;;;;5068172;28;20529;-54
2021/07/04 11:10:50;;;;;;;4.73;4.30;;;30.00;1.00;;;;;;5069615;28;20446;-54
2021/07/04 11:13:16;;;;;;;4.77;4.33;;;29.50;1.00;;;;;;5069467;28;20465;-55
2021/07/04 11:16:04;;;;;;;5.20;4.80;;;29.20;1.00;;;;;;5069680;28;20483;-54
2021/07/04 11:18:45;;;;;;;4.90;4.60;;;29.40;1.00;;;;;;5067208;28;20175;-55
2021/07/04 11:21:13;;;;;;;5.53;4.27;;;29.30;1.00;;;;;;5068998;28;20843;-54
2021/07/04 11:23:39;;;;;;;4.77;4.30;;;29.40;1.00;;;;;;5067770;28;20454;-54
2021/07/04 11:26:07;;;;;;;4.90;4.40;;;29.30;1.00;;;;;;5067955;28;20510;-53
2021/07/04 11:28:34;;;;;;;5.40;4.70;;;29.10;1.00;;;;;;5069350;28;20224;-55
2021/07/04 11:31:01;;;;;;;4.93;4.53;;;29.20;1.00;;;;;;5068948;28;20456;-54
2021/07/04 11:33:39;;;;;;;5.03;4.63;;;29.00;1.00;;;;;;5066421;28;20530;-54
2021/07/04 11:36:08;;;;;;;4.37;3.97;;;29.20;1.00;;;;;;5069164;28;20460;-55
2021/07/04 11:38:43;;;;;;;4.27;3.87;;;29.30;1.00;;;;;;5069059;28;20441;-53
2021/07/04 11:41:17;;;;;;;4.30;4.00;;;29.70;1.00;;;;;;5069004;28;20480;-54
2021/07/04 11:43:44;;;;;;;4.60;4.20;;;29.80;1.00;;;;;;5069063;28;20513;-53
2021/07/04 11:46:13;;;;;;;4.93;4.53;;;29.70;1.00;;;;;;5069333;28;20445;-54
2021/07/04 11:48:57;;;;;;;4.43;4.13;;;29.80;1.00;;;;;;5069098;28;20472;-56
2021/07/04 11:51:31;;;;;;;6.70;3.90;;;29.40;1.00;;;;;;5069365;28;20532;-55
2021/07/04 11:54:06;;;;;;;5.07;4.57;;;29.20;1.00;;;;;;5065398;28;20438;-55
2021/07/04 11:56:33;;;;;;;4.73;4.43;;;29.40;1.00;;;;;;5069164;28;20451;-55
2021/07/04 11:59:15;;;;;;;6.73;4.50;;;29.30;1.00;;;;;;5072087;28;20494;-55
2021/07/04 12:01:47;;;;;;;4.57;4.20;;;29.40;1.00;;;;;;5070561;28;20446;-55
2021/07/04 12:04:14;;;;;;;4.37;4.07;;;29.30;1.00;;;;;;5072394;28;20438;-54
2021/07/04 12:06:54;;;;;;;3.90;3.60;;;29.50;1.00;;;;;;5072948;28;20506;-56
2021/07/04 12:09:19;;;;;;;5.00;4.60;;;30.00;1.00;;;;;;5072747;28;20953;-54
2021/07/04 12:11:54;;;;;;;4.63;4.33;;;30.60;1.00;;;;;;5072478;28;20460;-55
2021/07/04 12:14:34;;;;;;;4.20;3.90;;;30.80;1.00;;;;;;5072621;28;20644;-55
2021/07/04 12:17:31;;;;;;;4.60;4.13;;;30.90;1.00;;;;;;5072492;28;20533;-55
2021/07/04 12:20:00;;;;;;;5.60;5.00;;;30.80;1.00;;;;;;5071777;28;20483;-56
2021/07/04 12:22:28;;;;;;;4.10;3.80;;;30.60;1.00;;;;;;5072438;28;20437;-55
2021/07/04 12:24:54;;;;;;;4.37;4.07;;;30.50;1.00;;;;;;5072340;28;20503;-55
2021/07/04 12:27:36;;;;;;;4.70;4.40;;;30.70;1.00;;;;;;5070897;28;20544;-54
2021/07/04 12:30:08;;;;;;;4.30;4.00;;;30.90;1.00;;;;;;5072193;28;20462;-55
2021/07/04 12:32:48;;;;;;;4.50;4.20;;;30.90;1.00;;;;;;5070847;28;20469;-55
2021/07/04 12:35:28;;;;;;;4.27;3.97;;;31.00;1.00;;;;;;5071858;28;21019;-55
2021/07/04 12:37:57;;;;;;;4.27;3.97;;;31.30;1.00;;;;;;5072109;28;20763;-56
2021/07/04 12:40:30;;;;;;;4.10;3.80;;;31.20;1.00;;;;;;5072063;28;20488;-55
2021/07/04 12:43:09;;;;;;;4.90;4.40;;;31.50;1.00;;;;;;5072074;28;20445;-56
2021/07/04 12:45:36;;;;;;;4.50;4.20;;;32.00;1.00;;;;;;5070190;28;20420;-56
2021/07/04 12:48:06;;;;;;;4.77;4.47;;;32.10;1.00;;;;;;5072304;28;20746;-57
2021/07/04 12:50:56;;;;;;;4.50;4.20;;;31.60;1.00;;;;;;5071759;28;20425;-55
2021/07/04 12:53:42;;;;;;;4.00;3.70;;;31.60;1.00;;;;;;5068892;28;20464;-54